Weather at Güveççi Garrisson

Public forecast

Using degrees Celsius for public forecast. Weather courtesy of forecast.io.

Closest aviation weather report (METAR) to Güveççi Garrisson

Closest report is Hatay Airport, 28.9 nm (53.6 km) N.

2024/05/30 14:50 (retrieved 51 minutes ago)

LTDA 301450Z 26016KT 9999 SCT040 27/14 Q1010 NOSIG

Closest aviation forecast (TAF) to Güveççi Garrisson

Forecast is more than 12 hours old.

Closest forecast is Hmeimim Air Base, 31.2 nm (57.8 km) SSW.

2024/05/29 06:36 (retrieved 1 day ago)

TAF TAF OSLK 290436Z 2906/3006 23015KT 9999 BKN030 TEMPO 2918/3006 16010KT 9999 FEW026TCU SCT030